Terminal Aerodrome Forecast
Issued by NWS

Home | Current Version | Previous Version | Text Only | Print | Product List | Glossary Off
Versions: 1 2 3 4 5 6 7 8 9 10 11 12 13 14 15 16

000
FTUS44 KLZK 211100
TAFLIT
TAF
KLIT 211123Z 2112/2212 VRB03KT P6SM SCT050
      TEMPO 2112/2114 5SM BR
     FM211500 33010KT P6SM SCT035 BKN100
     FM220000 01005KT P6SM SKC=

USA.gov is the U.S. government's official web portal to all federal, state and local government web resources and services.